createdAt,value
2017-12-11T00:00:06.807Z,0.00
2017-12-11T00:01:06.825Z,0.00
2017-12-11T00:02:06.826Z,0.00
2017-12-11T00:03:06.826Z,0.00
2017-12-11T00:04:06.828Z,0.00
2017-12-11T00:05:06.824Z,0.00
2017-12-11T00:06:06.828Z,0.00
2017-12-11T00:07:06.827Z,0.00
2017-12-11T00:08:06.828Z,0.00
2017-12-11T00:09:06.830Z,0.00
2017-12-11T00:10:06.830Z,0.00
2017-12-11T00:11:06.832Z,0.00
2017-12-11T00:12:06.835Z,0.00
2017-12-11T00:13:06.833Z,0.00
2017-12-11T00:14:06.835Z,0.00
2017-12-11T00:15:06.841Z,0.00
2017-12-11T00:16:06.839Z,0.00
2017-12-11T00:17:06.841Z,0.00
2017-12-11T00:18:06.832Z,0.00
2017-12-11T00:19:06.834Z,0.00
2017-12-11T00:20:06.857Z,0.00
2017-12-11T00:21:06.836Z,0.00
2017-12-11T00:22:06.840Z,0.00
2017-12-11T00:23:06.842Z,0.00
2017-12-11T00:24:06.857Z,0.00
2017-12-11T00:25:06.841Z,0.00
2017-12-11T00:26:06.848Z,0.00
2017-12-11T00:27:06.845Z,0.00
2017-12-11T00:28:06.847Z,0.00
2017-12-11T00:29:06.849Z,0.00
2017-12-11T00:30:06.862Z,0.00
2017-12-11T00:31:06.855Z,0.00
2017-12-11T00:32:06.856Z,0.00
2017-12-11T00:33:06.857Z,0.00
2017-12-11T00:34:06.863Z,0.00
2017-12-11T00:35:06.877Z,0.00
2017-12-11T00:36:06.859Z,0.00
2017-12-11T00:37:06.865Z,0.00
2017-12-11T00:38:06.861Z,0.00
2017-12-11T00:39:06.872Z,0.00
2017-12-11T00:40:06.864Z,0.00
2017-12-11T00:41:06.888Z,0.00
2017-12-11T00:42:06.867Z,0.00
2017-12-11T00:43:06.867Z,0.00
2017-12-11T00:44:06.871Z,0.00
2017-12-11T00:45:06.879Z,0.00
2017-12-11T00:46:06.873Z,0.00
2017-12-11T00:47:06.874Z,0.00
2017-12-11T00:48:06.876Z,0.00
2017-12-11T00:49:06.878Z,0.00
2017-12-11T00:50:06.879Z,0.00
2017-12-11T00:51:06.880Z,0.00
2017-12-11T00:52:06.882Z,0.00
2017-12-11T00:53:06.884Z,0.00
2017-12-11T00:54:06.885Z,0.00
2017-12-11T00:55:06.886Z,0.00
2017-12-11T00:56:06.886Z,0.00
2017-12-11T00:57:06.891Z,0.00
2017-12-11T00:58:06.891Z,0.00
2017-12-11T00:59:06.900Z,0.00
2017-12-11T01:00:06.894Z,0.00
2017-12-11T01:01:06.895Z,0.00
2017-12-11T01:02:06.896Z,0.00
2017-12-11T01:03:06.897Z,0.00
2017-12-11T01:04:06.901Z,0.00
2017-12-11T01:05:06.904Z,0.00
2017-12-11T01:06:06.905Z,0.00
2017-12-11T01:07:06.905Z,0.00
2017-12-11T01:08:06.908Z,0.00
2017-12-11T01:09:06.907Z,0.00
2017-12-11T01:10:06.910Z,0.00
2017-12-11T01:11:06.926Z,0.00
2017-12-11T01:12:06.930Z,0.00
2017-12-11T01:13:06.929Z,0.00
2017-12-11T01:14:06.929Z,0.00
2017-12-11T01:15:06.931Z,0.00
2017-12-11T01:16:06.940Z,0.00
2017-12-11T01:17:06.931Z,0.00
2017-12-11T01:18:06.929Z,0.00
2017-12-11T01:19:06.928Z,0.00
2017-12-11T01:20:06.931Z,0.00
2017-12-11T01:21:06.932Z,0.00
2017-12-11T01:22:06.934Z,0.00
2017-12-11T01:23:06.934Z,0.00
2017-12-11T01:24:06.942Z,0.00
2017-12-11T01:25:06.934Z,0.00
2017-12-11T01:26:06.937Z,0.00
2017-12-11T01:27:06.937Z,0.00
2017-12-11T01:28:06.938Z,0.00
2017-12-11T01:29:06.938Z,0.00
2017-12-11T01:30:06.940Z,0.00
2017-12-11T01:31:06.940Z,0.00
2017-12-11T01:32:06.951Z,0.00
2017-12-11T01:33:06.942Z,0.00
2017-12-11T01:34:06.942Z,0.00
2017-12-11T01:35:06.946Z,0.00
2017-12-11T01:36:06.945Z,0.00
2017-12-11T01:37:06.947Z,0.00
2017-12-11T01:38:06.956Z,0.00
2017-12-11T01:39:06.953Z,0.00
2017-12-11T01:40:06.957Z,0.00
2017-12-11T01:41:06.958Z,0.00
2017-12-11T01:42:06.953Z,0.00
2017-12-11T01:43:06.965Z,0.00
2017-12-11T01:44:06.973Z,0.00
2017-12-11T01:45:06.959Z,0.00
2017-12-11T01:46:06.959Z,0.00
2017-12-11T01:47:06.966Z,0.00
2017-12-11T01:48:06.964Z,0.00
2017-12-11T01:49:06.968Z,0.00
2017-12-11T01:50:06.966Z,0.00
2017-12-11T01:51:06.967Z,0.00
2017-12-11T01:52:06.969Z,0.00
2017-12-11T01:53:06.971Z,0.00
2017-12-11T01:54:06.983Z,0.00
2017-12-11T01:55:06.973Z,0.00
2017-12-11T01:56:06.974Z,0.00
2017-12-11T01:57:06.976Z,0.00
2017-12-11T01:58:06.977Z,0.00
2017-12-11T01:59:06.979Z,0.00
2017-12-11T02:00:06.979Z,0.00
2017-12-11T02:01:07.034Z,0.00
2017-12-11T02:02:06.983Z,0.00
2017-12-11T02:03:06.984Z,0.00
2017-12-11T02:04:06.986Z,0.00
2017-12-11T02:05:06.987Z,0.00
2017-12-11T02:06:06.988Z,0.00
2017-12-11T02:07:06.989Z,0.00
2017-12-11T02:08:06.992Z,0.00
2017-12-11T02:09:06.993Z,0.00
2017-12-11T02:10:06.995Z,0.00
2017-12-11T02:11:07.080Z,0.00
2017-12-11T02:12:06.998Z,0.00
2017-12-11T02:13:07.000Z,0.00
2017-12-11T02:14:07.000Z,0.00
2017-12-11T02:15:07.001Z,0.00
2017-12-11T02:16:07.005Z,0.00
2017-12-11T02:17:07.006Z,0.00
2017-12-11T02:18:07.007Z,0.00
2017-12-11T02:19:07.007Z,0.00
2017-12-11T02:20:07.009Z,0.00
2017-12-11T02:21:07.010Z,0.00
2017-12-11T02:22:07.017Z,0.00
2017-12-11T02:23:07.013Z,0.00
2017-12-11T02:24:07.015Z,0.00
2017-12-11T02:25:07.016Z,0.00
2017-12-11T02:26:07.101Z,0.00
2017-12-11T02:27:07.018Z,0.00
2017-12-11T02:28:07.021Z,0.00
2017-12-11T02:29:07.022Z,0.00
2017-12-11T02:30:07.022Z,0.00
2017-12-11T02:31:07.035Z,0.00
2017-12-11T02:32:07.038Z,0.00
2017-12-11T02:33:07.038Z,0.00
2017-12-11T02:34:07.038Z,0.00
2017-12-11T02:35:07.041Z,0.00
2017-12-11T02:36:07.042Z,0.00
2017-12-11T02:37:07.042Z,0.00
2017-12-11T02:38:07.047Z,0.00
2017-12-11T02:39:07.049Z,0.00
2017-12-11T02:40:07.042Z,0.00
2017-12-11T02:41:07.044Z,0.00
2017-12-11T02:42:07.055Z,0.00
2017-12-11T02:43:07.046Z,0.00
2017-12-11T02:44:07.046Z,0.00
2017-12-11T02:45:07.056Z,0.00
2017-12-11T02:46:07.048Z,0.00
2017-12-11T02:47:07.048Z,0.00
2017-12-11T02:48:07.052Z,0.00
2017-12-11T02:49:07.054Z,0.00
2017-12-11T02:50:07.052Z,0.00
2017-12-11T02:51:07.054Z,0.00
2017-12-11T02:52:07.056Z,0.00
2017-12-11T02:53:07.057Z,0.00
2017-12-11T02:54:07.061Z,0.00
2017-12-11T02:55:07.059Z,0.00
2017-12-11T02:56:07.064Z,0.00
2017-12-11T02:57:07.063Z,0.00
2017-12-11T02:58:07.063Z,0.00
2017-12-11T02:59:07.065Z,0.00
2017-12-11T03:00:07.068Z,0.00
2017-12-11T03:01:07.069Z,0.00
2017-12-11T03:02:07.069Z,0.00
2017-12-11T03:03:07.071Z,0.00
2017-12-11T03:04:07.072Z,0.00
2017-12-11T03:05:07.073Z,0.00
2017-12-11T03:06:07.075Z,0.00
2017-12-11T03:07:07.077Z,0.00
2017-12-11T03:08:07.078Z,0.00
2017-12-11T03:09:07.080Z,0.00
2017-12-11T03:10:07.081Z,0.00
2017-12-11T03:11:07.083Z,0.00
2017-12-11T03:12:07.084Z,0.00
2017-12-11T03:13:07.086Z,0.00
2017-12-11T03:14:07.087Z,0.00
2017-12-11T03:15:07.087Z,0.00
2017-12-11T03:16:07.091Z,0.00
2017-12-11T03:17:07.092Z,0.00
2017-12-11T03:18:07.092Z,0.00
2017-12-11T03:19:07.093Z,0.00
2017-12-11T03:20:07.096Z,0.00
2017-12-11T03:21:07.096Z,0.00
2017-12-11T03:22:07.099Z,0.00
2017-12-11T03:23:07.100Z,0.00
2017-12-11T03:24:07.110Z,0.00
2017-12-11T03:25:07.112Z,0.00
2017-12-11T03:26:07.103Z,0.00
2017-12-11T03:27:07.105Z,0.00
2017-12-11T03:28:07.107Z,0.00
2017-12-11T03:29:07.109Z,0.00
2017-12-11T03:30:07.109Z,0.00
2017-12-11T03:31:07.177Z,0.00
2017-12-11T03:32:07.115Z,0.00
2017-12-11T03:33:07.114Z,0.00
2017-12-11T03:34:07.115Z,0.00
2017-12-11T03:35:07.117Z,0.00
2017-12-11T03:36:07.116Z,0.00
2017-12-11T03:37:07.120Z,0.00
2017-12-11T03:38:07.120Z,0.00
2017-12-11T03:39:07.122Z,0.00
2017-12-11T03:40:07.140Z,0.00
2017-12-11T03:41:07.125Z,0.00
2017-12-11T03:42:07.126Z,0.00
2017-12-11T03:43:07.128Z,0.00
2017-12-11T03:44:07.139Z,0.00
2017-12-11T03:45:07.140Z,0.00
2017-12-11T03:46:07.141Z,0.00
2017-12-11T03:47:07.142Z,0.00
2017-12-11T03:48:07.143Z,0.00
2017-12-11T03:49:07.144Z,0.00
2017-12-11T03:50:07.147Z,0.00
2017-12-11T03:51:07.143Z,0.00
2017-12-11T03:52:07.144Z,0.00
2017-12-11T03:53:07.143Z,0.00
2017-12-11T03:54:07.145Z,0.00
2017-12-11T03:55:07.147Z,0.00
2017-12-11T03:56:07.148Z,0.00
2017-12-11T03:57:07.150Z,0.00
2017-12-11T03:58:07.153Z,0.00
2017-12-11T03:59:07.151Z,0.00
2017-12-11T04:00:07.153Z,0.00
2017-12-11T04:01:07.155Z,0.00
2017-12-11T04:02:07.152Z,0.00
2017-12-11T04:03:07.156Z,0.00
2017-12-11T04:04:07.158Z,0.00
2017-12-11T04:05:07.160Z,0.00
2017-12-11T04:06:07.163Z,0.00
2017-12-11T04:07:07.162Z,0.00
2017-12-11T04:08:07.168Z,0.00
2017-12-11T04:09:07.165Z,0.00
2017-12-11T04:10:07.167Z,0.00
2017-12-11T04:11:07.168Z,0.00
2017-12-11T04:12:07.171Z,0.00
2017-12-11T04:13:07.179Z,0.00
2017-12-11T04:14:07.173Z,0.00
2017-12-11T04:15:07.178Z,0.00
2017-12-11T04:16:07.175Z,0.00
2017-12-11T04:17:07.177Z,0.00
2017-12-11T04:18:07.177Z,0.00
2017-12-11T04:19:07.179Z,0.00
2017-12-11T04:20:07.184Z,0.00
2017-12-11T04:21:07.180Z,0.00
2017-12-11T04:22:07.183Z,0.00
2017-12-11T04:23:07.184Z,0.00
2017-12-11T04:24:07.186Z,0.00
2017-12-11T04:25:07.189Z,0.00
2017-12-11T04:26:07.187Z,0.00
2017-12-11T04:27:07.189Z,0.00
2017-12-11T04:28:07.190Z,0.00
2017-12-11T04:29:07.193Z,0.00
2017-12-11T04:30:07.193Z,0.00
2017-12-11T04:31:07.195Z,0.00
2017-12-11T04:32:07.196Z,0.00
2017-12-11T04:33:07.197Z,0.00
2017-12-11T04:34:07.199Z,0.00
2017-12-11T04:35:07.205Z,0.00
2017-12-11T04:36:07.202Z,0.00
2017-12-11T04:37:07.203Z,0.00
2017-12-11T04:38:07.206Z,0.00
2017-12-11T04:39:07.205Z,0.00
2017-12-11T04:40:07.206Z,0.00
2017-12-11T04:41:07.209Z,0.00
2017-12-11T04:42:07.208Z,0.00
2017-12-11T04:43:07.210Z,0.00
2017-12-11T04:44:07.211Z,0.00
2017-12-11T04:45:07.215Z,0.00
2017-12-11T04:46:07.216Z,0.00
2017-12-11T04:47:07.215Z,0.00
2017-12-11T04:48:07.217Z,0.00
2017-12-11T04:49:07.219Z,0.00
2017-12-11T04:50:07.220Z,0.00
2017-12-11T04:51:07.223Z,0.00
2017-12-11T04:52:07.223Z,0.00
2017-12-11T04:53:07.225Z,0.00
2017-12-11T04:54:07.224Z,0.00
2017-12-11T04:55:07.226Z,0.00
2017-12-11T04:56:07.291Z,0.00
2017-12-11T04:57:07.230Z,0.00
2017-12-11T04:58:07.230Z,0.00
2017-12-11T04:59:07.232Z,0.00
2017-12-11T05:00:07.235Z,0.00
2017-12-11T05:01:07.240Z,0.00
2017-12-11T05:02:07.236Z,0.00
2017-12-11T05:03:07.238Z,0.00
2017-12-11T05:04:07.238Z,0.00
2017-12-11T05:05:07.240Z,0.00
2017-12-11T05:06:07.239Z,0.00
2017-12-11T05:07:07.240Z,0.00
2017-12-11T05:08:07.239Z,0.00
2017-12-11T05:09:07.240Z,0.00
2017-12-11T05:10:07.239Z,0.00
2017-12-11T05:11:07.237Z,0.00
2017-12-11T05:12:07.238Z,0.00
2017-12-11T05:13:07.238Z,0.00
2017-12-11T05:14:07.237Z,0.00
2017-12-11T05:15:07.237Z,0.00
2017-12-11T05:16:07.236Z,0.00
2017-12-11T05:17:07.235Z,0.00
2017-12-11T05:18:07.232Z,0.00
2017-12-11T05:19:07.237Z,0.00
2017-12-11T05:20:07.234Z,0.00
2017-12-11T05:21:07.236Z,0.00
2017-12-11T05:22:07.233Z,0.00
2017-12-11T05:23:07.233Z,0.00
2017-12-11T05:24:07.234Z,0.00
2017-12-11T05:25:07.242Z,0.00
2017-12-11T05:26:07.232Z,0.00
2017-12-11T05:27:07.235Z,0.00
2017-12-11T05:28:07.241Z,0.00
2017-12-11T05:29:07.233Z,0.00
2017-12-11T05:30:07.234Z,0.00
2017-12-11T05:31:07.233Z,0.00
2017-12-11T05:32:07.234Z,0.00
2017-12-11T05:33:07.238Z,0.00
2017-12-11T05:34:07.236Z,0.00
2017-12-11T05:35:07.237Z,0.00
2017-12-11T05:36:07.237Z,0.00
2017-12-11T05:37:07.242Z,0.00
2017-12-11T05:38:07.238Z,0.00
2017-12-11T05:39:07.240Z,0.00
2017-12-11T05:40:07.253Z,0.00
2017-12-11T05:41:07.239Z,0.00
2017-12-11T05:42:07.243Z,0.00
2017-12-11T05:43:07.246Z,0.00
2017-12-11T05:44:07.245Z,0.00
2017-12-11T05:45:07.245Z,0.00
2017-12-11T05:46:07.245Z,0.00
2017-12-11T05:47:07.249Z,0.00
2017-12-11T05:48:07.247Z,0.00
2017-12-11T05:49:07.248Z,0.00
2017-12-11T05:50:07.247Z,0.00
2017-12-11T05:51:07.250Z,0.00
2017-12-11T05:52:07.251Z,0.00
2017-12-11T05:53:07.289Z,0.00
2017-12-11T05:54:07.252Z,0.00
2017-12-11T05:55:07.263Z,0.00
2017-12-11T05:56:07.255Z,0.00
2017-12-11T05:57:07.256Z,0.00
2017-12-11T05:58:07.256Z,0.00
2017-12-11T05:59:07.257Z,0.00
2017-12-11T06:00:07.260Z,0.00
2017-12-11T06:01:07.267Z,0.00
2017-12-11T06:02:07.258Z,0.00
2017-12-11T06:03:07.260Z,0.00
2017-12-11T06:04:07.260Z,0.00
2017-12-11T06:05:07.262Z,0.00
2017-12-11T06:06:07.325Z,0.00
2017-12-11T06:07:07.262Z,0.00
2017-12-11T06:08:07.263Z,0.00
2017-12-11T06:09:07.264Z,0.00
2017-12-11T06:10:07.265Z,0.00
2017-12-11T06:11:07.264Z,0.00
2017-12-11T06:12:07.266Z,0.00
2017-12-11T06:13:07.268Z,0.00
2017-12-11T06:14:07.268Z,0.00
2017-12-11T06:15:07.276Z,0.00
2017-12-11T06:16:07.276Z,0.00
2017-12-11T06:17:07.272Z,0.00
2017-12-11T06:18:07.274Z,0.00
2017-12-11T06:19:07.274Z,0.00
2017-12-11T06:20:07.276Z,0.00
2017-12-11T06:21:07.277Z,0.00
2017-12-11T06:22:07.278Z,0.00
2017-12-11T06:23:07.280Z,0.00
2017-12-11T06:24:07.285Z,0.00
2017-12-11T06:25:07.285Z,0.00
2017-12-11T06:26:07.285Z,0.00
2017-12-11T06:27:07.289Z,0.00
2017-12-11T06:28:07.290Z,0.00
2017-12-11T06:29:07.292Z,0.00
2017-12-11T06:30:07.295Z,0.00
2017-12-11T06:31:07.294Z,0.00
2017-12-11T06:32:07.296Z,0.00
2017-12-11T06:33:07.299Z,0.00
2017-12-11T06:34:07.299Z,0.00
2017-12-11T06:35:07.299Z,0.00
2017-12-11T06:36:07.303Z,0.00
2017-12-11T06:37:07.305Z,0.00
2017-12-11T06:38:07.310Z,0.00
2017-12-11T06:39:07.310Z,0.00
2017-12-11T06:40:07.324Z,0.00
2017-12-11T06:41:07.316Z,0.00
2017-12-11T06:42:07.314Z,0.00
2017-12-11T06:43:07.315Z,0.00
2017-12-11T06:44:07.318Z,0.00
2017-12-11T06:45:07.320Z,320.00
2017-12-11T06:46:07.322Z,404.00
2017-12-11T06:47:07.324Z,424.00
2017-12-11T06:48:07.334Z,424.00
2017-12-11T06:49:07.330Z,428.00
2017-12-11T06:50:07.341Z,0.00
2017-12-11T06:51:07.353Z,0.00
2017-12-11T06:52:07.332Z,0.00
2017-12-11T06:53:07.333Z,0.00
2017-12-11T06:54:07.334Z,0.00
2017-12-11T06:55:07.335Z,0.00
2017-12-11T06:56:07.335Z,0.00
2017-12-11T06:57:07.338Z,0.00
2017-12-11T06:58:07.338Z,0.00
2017-12-11T06:59:07.340Z,0.00
2017-12-11T07:00:07.341Z,0.00
2017-12-11T07:01:07.341Z,0.00
2017-12-11T07:02:07.342Z,0.00
2017-12-11T07:03:07.347Z,0.00
2017-12-11T07:04:07.342Z,0.00
2017-12-11T07:05:07.345Z,0.00
2017-12-11T07:06:07.345Z,0.00
2017-12-11T07:07:07.346Z,0.00
2017-12-11T07:08:07.347Z,0.00
2017-12-11T07:09:07.348Z,0.00
2017-12-11T07:10:07.350Z,0.00
2017-12-11T07:11:07.350Z,0.00
2017-12-11T07:12:07.353Z,0.00
2017-12-11T07:13:07.362Z,0.00
2017-12-11T07:14:07.354Z,0.00
2017-12-11T07:15:07.365Z,0.00
2017-12-11T07:16:07.359Z,0.00
2017-12-11T07:17:07.362Z,0.00
2017-12-11T07:18:07.362Z,0.00
2017-12-11T07:19:07.364Z,0.00
2017-12-11T07:20:07.372Z,0.00
2017-12-11T07:21:07.370Z,0.00
2017-12-11T07:22:07.369Z,0.00
2017-12-11T07:23:07.376Z,0.00
2017-12-11T07:24:07.375Z,0.00
2017-12-11T07:25:07.379Z,0.00
2017-12-11T07:26:07.380Z,0.00
2017-12-11T07:27:07.390Z,0.00
2017-12-11T07:28:07.383Z,0.00
2017-12-11T07:29:07.386Z,0.00
2017-12-11T07:30:07.388Z,0.00
2017-12-11T07:31:07.389Z,0.00
2017-12-11T07:32:07.390Z,0.00
2017-12-11T07:33:07.394Z,0.00
2017-12-11T07:34:07.396Z,0.00
2017-12-11T07:35:07.399Z,0.00
2017-12-11T07:36:07.402Z,0.00
2017-12-11T07:37:07.403Z,0.00
2017-12-11T07:38:07.406Z,0.00
2017-12-11T07:39:07.408Z,4.00
2017-12-11T07:40:07.412Z,4.00
2017-12-11T07:41:07.413Z,4.00
2017-12-11T07:42:07.414Z,4.00
2017-12-11T07:43:07.416Z,4.00
2017-12-11T07:44:07.421Z,4.00
2017-12-11T07:45:07.422Z,4.00
2017-12-11T07:46:07.421Z,4.00
2017-12-11T07:47:07.424Z,4.00
2017-12-11T07:48:07.429Z,0.00
2017-12-11T07:49:07.432Z,0.00
2017-12-11T07:50:07.433Z,0.00
2017-12-11T07:51:07.436Z,4.00
2017-12-11T07:52:07.438Z,4.00
2017-12-11T07:53:07.447Z,4.00
2017-12-11T07:54:07.445Z,4.00
2017-12-11T07:55:07.446Z,4.00
2017-12-11T07:56:07.444Z,4.00
2017-12-11T07:57:07.449Z,4.00
2017-12-11T07:58:07.452Z,4.00
2017-12-11T07:59:07.453Z,4.00
2017-12-11T08:00:07.456Z,4.00
2017-12-11T08:01:07.459Z,4.00
2017-12-11T08:02:07.460Z,8.00
2017-12-11T08:03:07.459Z,8.00
2017-12-11T08:04:07.464Z,4.00
2017-12-11T08:05:07.493Z,4.00
2017-12-11T08:06:07.468Z,4.00
2017-12-11T08:07:07.470Z,4.00
2017-12-11T08:08:07.473Z,4.00
2017-12-11T08:09:07.473Z,4.00
2017-12-11T08:10:07.485Z,388.00
2017-12-11T08:11:07.488Z,428.00
2017-12-11T08:12:07.486Z,436.00
2017-12-11T08:13:07.484Z,436.00
2017-12-11T08:14:07.487Z,440.00
2017-12-11T08:15:07.491Z,440.00
2017-12-11T08:16:07.492Z,440.00
2017-12-11T08:17:07.490Z,440.00
2017-12-11T08:18:07.492Z,440.00
2017-12-11T08:19:07.492Z,440.00
2017-12-11T08:20:07.492Z,440.00
2017-12-11T08:21:07.493Z,440.00
2017-12-11T08:22:07.497Z,440.00
2017-12-11T08:23:07.494Z,440.00
2017-12-11T08:24:07.499Z,440.00
2017-12-11T08:25:07.498Z,440.00
2017-12-11T08:26:07.495Z,440.00
2017-12-11T08:27:07.494Z,440.00
2017-12-11T08:28:07.508Z,440.00
2017-12-11T08:29:07.496Z,440.00
2017-12-11T08:30:07.504Z,440.00
2017-12-11T08:31:07.496Z,440.00
2017-12-11T08:32:07.497Z,444.00
2017-12-11T08:33:07.498Z,444.00
2017-12-11T08:34:07.497Z,444.00
2017-12-11T08:35:07.498Z,444.00
2017-12-11T08:36:07.506Z,444.00
2017-12-11T08:37:07.504Z,444.00
2017-12-11T08:38:07.498Z,444.00
2017-12-11T08:39:07.501Z,428.00
2017-12-11T08:40:07.504Z,444.00
2017-12-11T08:41:07.508Z,444.00
2017-12-11T08:42:07.500Z,444.00
2017-12-11T08:43:07.506Z,440.00
2017-12-11T08:44:07.511Z,440.00
2017-12-11T08:45:07.504Z,440.00
2017-12-11T08:46:07.509Z,444.00
2017-12-11T08:47:07.513Z,444.00
2017-12-11T08:48:07.526Z,444.00
2017-12-11T08:49:07.507Z,444.00
2017-12-11T08:50:07.507Z,444.00
2017-12-11T08:51:07.510Z,444.00
2017-12-11T08:52:07.511Z,444.00
2017-12-11T08:53:07.516Z,444.00
2017-12-11T08:54:07.515Z,444.00
2017-12-11T08:55:07.515Z,444.00
2017-12-11T08:56:07.516Z,444.00
2017-12-11T08:57:07.517Z,444.00
2017-12-11T08:58:07.518Z,444.00
2017-12-11T08:59:07.519Z,440.00
2017-12-11T09:00:07.523Z,96.00
2017-12-11T09:01:07.523Z,8.00
2017-12-11T09:02:07.524Z,8.00
2017-12-11T09:03:07.524Z,8.00
2017-12-11T09:04:07.525Z,8.00
2017-12-11T09:05:07.528Z,8.00
2017-12-11T09:06:07.529Z,8.00
2017-12-11T09:07:07.531Z,8.00
2017-12-11T09:08:07.533Z,8.00
2017-12-11T09:09:07.535Z,8.00
2017-12-11T09:10:07.543Z,8.00
2017-12-11T09:11:07.534Z,8.00
2017-12-11T09:12:07.539Z,8.00
2017-12-11T09:13:07.539Z,8.00
2017-12-11T09:14:07.559Z,8.00
2017-12-11T09:15:07.541Z,8.00
2017-12-11T09:16:07.545Z,8.00
2017-12-11T09:17:07.554Z,8.00
2017-12-11T09:18:07.546Z,8.00
2017-12-11T09:19:07.547Z,12.00
2017-12-11T09:20:07.560Z,12.00
2017-12-11T09:21:07.551Z,12.00
2017-12-11T09:22:07.551Z,12.00
2017-12-11T09:23:07.554Z,12.00
2017-12-11T09:24:07.556Z,12.00
2017-12-11T09:25:07.560Z,12.00
2017-12-11T09:26:07.559Z,12.00
2017-12-11T09:27:07.560Z,12.00
2017-12-11T09:28:07.563Z,12.00
2017-12-11T09:29:07.564Z,12.00
2017-12-11T09:30:07.565Z,12.00
2017-12-11T09:31:07.566Z,12.00
2017-12-11T09:32:07.571Z,12.00
2017-12-11T09:33:07.572Z,12.00
2017-12-11T09:34:07.571Z,12.00
2017-12-11T09:35:07.574Z,8.00
2017-12-11T09:36:07.576Z,8.00
2017-12-11T09:37:07.578Z,8.00
2017-12-11T09:38:07.582Z,8.00
2017-12-11T09:39:07.578Z,8.00
2017-12-11T09:40:07.579Z,12.00
2017-12-11T09:41:07.582Z,12.00
2017-12-11T09:42:07.584Z,12.00
2017-12-11T09:43:07.585Z,8.00
2017-12-11T09:44:07.587Z,8.00
2017-12-11T09:45:07.589Z,12.00
2017-12-11T09:46:07.590Z,12.00
2017-12-11T09:47:07.592Z,12.00
2017-12-11T09:48:07.594Z,12.00
2017-12-11T09:49:07.598Z,8.00
2017-12-11T09:50:07.596Z,8.00
2017-12-11T09:51:07.608Z,12.00
2017-12-11T09:52:07.600Z,12.00
2017-12-11T09:53:07.606Z,12.00
2017-12-11T09:54:07.608Z,12.00
2017-12-11T09:55:07.605Z,12.00
2017-12-11T09:56:07.608Z,12.00
2017-12-11T09:57:07.610Z,12.00
2017-12-11T09:58:07.609Z,12.00
2017-12-11T09:59:07.611Z,12.00
2017-12-11T10:00:07.613Z,16.00
2017-12-11T10:01:07.614Z,16.00
2017-12-11T10:02:07.615Z,16.00
2017-12-11T10:03:07.618Z,352.00
2017-12-11T10:04:07.621Z,420.00
2017-12-11T10:05:07.622Z,436.00
2017-12-11T10:06:07.621Z,440.00
2017-12-11T10:07:07.623Z,436.00
2017-12-11T10:08:07.628Z,440.00
2017-12-11T10:09:07.632Z,444.00
2017-12-11T10:10:07.632Z,444.00
2017-12-11T10:11:07.628Z,444.00
2017-12-11T10:12:07.630Z,444.00
2017-12-11T10:13:07.632Z,444.00
2017-12-11T10:14:07.638Z,436.00
2017-12-11T10:15:07.634Z,432.00
2017-12-11T10:16:07.634Z,436.00
2017-12-11T10:17:07.636Z,428.00
2017-12-11T10:18:07.636Z,404.00
2017-12-11T10:19:07.637Z,432.00
2017-12-11T10:20:07.644Z,444.00
2017-12-11T10:21:07.641Z,440.00
2017-12-11T10:22:07.640Z,444.00
2017-12-11T10:23:07.641Z,452.00
2017-12-11T10:24:07.645Z,448.00
2017-12-11T10:25:07.645Z,452.00
2017-12-11T10:26:07.646Z,452.00
2017-12-11T10:27:07.649Z,448.00
2017-12-11T10:28:07.650Z,448.00
2017-12-11T10:29:07.652Z,452.00
2017-12-11T10:30:07.652Z,452.00
2017-12-11T10:31:07.654Z,452.00
2017-12-11T10:32:07.657Z,452.00
2017-12-11T10:33:07.658Z,452.00
2017-12-11T10:34:07.658Z,452.00
2017-12-11T10:35:07.660Z,452.00
2017-12-11T10:36:07.660Z,456.00
2017-12-11T10:37:07.663Z,456.00
2017-12-11T10:38:07.664Z,456.00
2017-12-11T10:39:07.665Z,452.00
2017-12-11T10:40:07.668Z,452.00
2017-12-11T10:41:07.667Z,452.00
2017-12-11T10:42:07.668Z,456.00
2017-12-11T10:43:07.668Z,452.00
2017-12-11T10:44:07.673Z,456.00
2017-12-11T10:45:07.674Z,456.00
2017-12-11T10:46:07.673Z,456.00
2017-12-11T10:47:07.676Z,456.00
2017-12-11T10:48:07.678Z,456.00
2017-12-11T10:49:07.679Z,456.00
2017-12-11T10:50:07.680Z,456.00
2017-12-11T10:51:07.682Z,456.00
2017-12-11T10:52:07.691Z,452.00
2017-12-11T10:53:07.684Z,452.00
2017-12-11T10:54:07.686Z,452.00
2017-12-11T10:55:07.702Z,452.00
2017-12-11T10:56:07.690Z,428.00
2017-12-11T10:57:07.691Z,452.00
2017-12-11T10:58:07.693Z,452.00
2017-12-11T10:59:07.695Z,456.00
2017-12-11T11:00:07.696Z,452.00
2017-12-11T11:01:07.696Z,452.00
2017-12-11T11:02:07.697Z,452.00
2017-12-11T11:03:07.699Z,452.00
2017-12-11T11:04:07.702Z,452.00
2017-12-11T11:05:07.711Z,452.00
2017-12-11T11:06:07.702Z,456.00
2017-12-11T11:07:07.704Z,456.00
2017-12-11T11:08:07.709Z,452.00
2017-12-11T11:09:07.709Z,452.00
2017-12-11T11:10:07.718Z,452.00
2017-12-11T11:11:07.710Z,452.00
2017-12-11T11:12:07.712Z,456.00
2017-12-11T11:13:07.715Z,452.00
2017-12-11T11:14:07.715Z,452.00
2017-12-11T11:15:07.728Z,452.00
2017-12-11T11:16:07.718Z,452.00
2017-12-11T11:17:07.719Z,452.00
2017-12-11T11:18:07.719Z,452.00
2017-12-11T11:19:07.719Z,452.00
2017-12-11T11:20:07.745Z,448.00
2017-12-11T11:21:07.724Z,216.00
2017-12-11T11:22:07.725Z,456.00
2017-12-11T11:23:07.726Z,460.00
2017-12-11T11:24:07.726Z,456.00
2017-12-11T11:25:07.729Z,460.00
2017-12-11T11:26:07.729Z,460.00
2017-12-11T11:27:07.731Z,460.00
2017-12-11T11:28:07.733Z,460.00
2017-12-11T11:29:07.733Z,460.00
2017-12-11T11:30:07.738Z,460.00
2017-12-11T11:31:07.734Z,460.00
2017-12-11T11:32:07.739Z,460.00
2017-12-11T11:33:07.739Z,460.00
2017-12-11T11:34:07.745Z,460.00
2017-12-11T11:35:07.740Z,460.00
2017-12-11T11:36:07.757Z,460.00
2017-12-11T11:37:07.744Z,460.00
2017-12-11T11:38:07.746Z,460.00
2017-12-11T11:39:07.745Z,460.00
2017-12-11T11:40:07.748Z,456.00
2017-12-11T11:41:07.749Z,456.00
2017-12-11T11:42:07.749Z,460.00
2017-12-11T11:43:07.752Z,460.00
2017-12-11T11:44:07.752Z,456.00
2017-12-11T11:45:07.754Z,456.00
2017-12-11T11:46:07.754Z,460.00
2017-12-11T11:47:07.754Z,460.00
2017-12-11T11:48:07.779Z,460.00
2017-12-11T11:49:07.757Z,460.00
2017-12-11T11:50:07.759Z,460.00
2017-12-11T11:51:07.761Z,464.00
2017-12-11T11:52:07.763Z,460.00
2017-12-11T11:53:07.764Z,460.00
2017-12-11T11:54:07.764Z,464.00
2017-12-11T11:55:07.766Z,460.00
2017-12-11T11:56:07.768Z,464.00
2017-12-11T11:57:07.769Z,464.00
2017-12-11T11:58:07.775Z,464.00
2017-12-11T11:59:07.770Z,464.00
2017-12-11T12:00:07.800Z,460.00
2017-12-11T12:01:07.775Z,460.00
2017-12-11T12:02:07.775Z,460.00
2017-12-11T12:03:07.778Z,460.00
2017-12-11T12:04:07.818Z,464.00
2017-12-11T12:05:07.783Z,464.00
2017-12-11T12:06:07.781Z,464.00
2017-12-11T12:07:07.786Z,464.00
2017-12-11T12:08:07.790Z,464.00
2017-12-11T12:09:07.787Z,460.00
2017-12-11T12:10:07.789Z,460.00
2017-12-11T12:11:07.799Z,464.00
2017-12-11T12:12:07.792Z,460.00
2017-12-11T12:13:07.795Z,468.00
2017-12-11T12:14:07.795Z,464.00
2017-12-11T12:15:07.796Z,464.00
2017-12-11T12:16:07.798Z,464.00
2017-12-11T12:17:07.800Z,464.00
2017-12-11T12:18:07.802Z,464.00
2017-12-11T12:19:07.802Z,464.00
2017-12-11T12:20:07.804Z,464.00
2017-12-11T12:21:07.806Z,468.00
2017-12-11T12:22:07.807Z,464.00
2017-12-11T12:23:07.806Z,464.00
2017-12-11T12:24:07.810Z,464.00
2017-12-11T12:25:07.812Z,464.00
2017-12-11T12:26:07.811Z,468.00
2017-12-11T12:27:07.814Z,468.00
2017-12-11T12:28:07.814Z,468.00
2017-12-11T12:29:07.816Z,468.00
2017-12-11T12:30:07.817Z,464.00
2017-12-11T12:31:07.817Z,468.00
2017-12-11T12:32:07.819Z,468.00
2017-12-11T12:33:07.822Z,464.00
2017-12-11T12:34:07.827Z,464.00
2017-12-11T12:35:07.832Z,464.00
2017-12-11T12:36:07.831Z,464.00
2017-12-11T12:37:07.827Z,468.00
2017-12-11T12:38:07.849Z,468.00
2017-12-11T12:39:07.831Z,464.00
2017-12-11T12:40:07.832Z,464.00
2017-12-11T12:41:07.832Z,468.00
2017-12-11T12:42:07.835Z,468.00
2017-12-11T12:43:07.835Z,464.00
2017-12-11T12:44:07.837Z,464.00
2017-12-11T12:45:07.840Z,464.00
2017-12-11T12:46:07.839Z,464.00
2017-12-11T12:47:07.841Z,464.00
2017-12-11T12:48:07.842Z,464.00
2017-12-11T12:49:07.843Z,464.00
2017-12-11T12:50:07.843Z,464.00
2017-12-11T12:51:07.845Z,464.00
2017-12-11T12:52:07.847Z,464.00
2017-12-11T12:53:07.849Z,464.00
2017-12-11T12:54:07.851Z,460.00
2017-12-11T12:55:07.852Z,460.00
2017-12-11T12:56:07.854Z,460.00
2017-12-11T12:57:07.853Z,460.00
2017-12-11T12:58:07.853Z,460.00
2017-12-11T12:59:07.856Z,460.00
2017-12-11T13:00:07.859Z,464.00
2017-12-11T13:01:07.862Z,464.00